• Join FlightAware (Why Join?)
  • Login
  • US Flag 
02:55PM EDT


 

Airport Tracker/Info


-or-


 

Live Flight TrackerFlight Track Log ✈ N88WZ ✈ 03-Aug-2013 ✈ KHPN - KBED

Flight Track Log - Related Links

Times and Time Zones

All times are in EDT time to prevent confusion due to time zone crossing. See the N88WZ flight status page for this flight to view local times or setup timezone preferences in your user account.

Time Position Orientation Groundspeed Altitude Reporting Facility
EDT Latitude Longitude Course Direction KTS MPH feet Rate Location/Type
03:09PM 41.0833 -73.7000 37° Northeast 114 131 1,500  Level New York TRACON
03:10PM 41.1167 -73.6667 37° Northeast 145 167 2,000 240 Climbing New York TRACON
03:11PM 41.1333 -73.6167 66° East 174 200 2,000  Level New York TRACON
03:12PM 41.1500 -73.5667 66° East 177 204 2,100  Climbing New York TRACON
03:13PM 41.1667 -73.5000 72° East 169 194 2,000 -60 Descending New York TRACON
03:14PM 41.2000 -73.4500 48° Northeast 161 185 2,000  Level New York TRACON
03:15PM 41.2167 -73.4000 66° East 160 184 2,100 360 Climbing New York TRACON
03:16PM 41.2500 -73.3500 48° Northeast 144 166 2,800 900 Climbing New York TRACON
03:17PM 41.2667 -73.3167 56° Northeast 126 145 4,000 1,140 Climbing New York TRACON
03:18PM 41.2833 -73.2833 56° Northeast 136 157 5,100 840 Climbing New York TRACON
03:19PM 41.3000 -73.2333 66° East 162 186 5,600 240 Climbing New York TRACON
03:20PM 41.3167 -73.1667 72° East 186 214 5,600 -60 Level New York TRACON
03:21PM 41.3500 -73.1000 56° Northeast 192 221 5,500 -60 Descending New York TRACON
03:22PM 41.3667 -73.0333 72° East 188 216 5,500  Level New York TRACON
03:24PM 41.4055 -73.0222 12° North  Level FlightAware Approximate
03:31PM 41.5682 -72.7637 52° Northeast  Level Estimated
03:32PM 41.5922 -72.7276 48° Northeast  Level FlightAware Approximate
03:33PM 41.6162 -72.6914 48° Northeast  Level FlightAware Approximate
03:33PM 41.6897 -72.4650 49° Northeast 178 205 5,500  Level Boston Center
03:33PM 41.7064 -72.4400 48° Northeast 181 208 5,500  Level Boston Center
03:34PM 41.6401 -72.6552 48° Northeast  Level FlightAware Approximate
03:35PM 41.6641 -72.6190 48° Northeast  Level FlightAware Approximate
03:35PM 41.7378 -72.3872 51° Northeast 182 209 5,500  Level Boston Center
03:36PM 41.6880 -72.5828 48° Northeast  Level FlightAware Approximate
03:36PM 41.7708 -72.3372 48° Northeast 185 213 5,500  Level Boston Center
03:36PM 41.8042 -72.2842 50° Northeast 182 209 5,500  Level Boston Center
03:37PM 41.7120 -72.5465 49° Northeast  Level FlightAware Approximate
03:38PM 41.7359 -72.5102 49° Northeast  Level FlightAware Approximate
03:38PM 41.8397 -72.2339 46° Northeast 179 206 5,500  Level Boston Center
03:39PM 41.8769 -72.1864 44° Northeast 177 204 5,200 -420 Descending Boston Center
03:40PM 41.9164 -72.1472 36° Northeast 183 211 4,700 -600 Descending Boston Center
03:41PM 41.9561 -72.1078 36° Northeast 168 193 4,100 -600 Descending Boston Center
03:42PM 41.9956 -72.0575 43° Northeast 187 215 3,500 -300 Descending Boston Center
03:43PM 42.0225 -72.0125 51° Northeast 160 184 3,500  Level Boston Center
03:44PM 42.0514 -71.9675 49° Northeast 160 184 3,500  Level Boston Center
03:45PM 42.0825 -71.9169 50° Northeast 160 184 3,500  Level Boston Center
03:46PM 42.1092 -71.8719 51° Northeast 160 184 3,500  Level Boston Center
03:47PM 42.1383 -71.8242 51° Northeast 159 183 3,500  Level Boston Center
03:48PM 42.1692 -71.7819 45° Northeast 162 186 3,500 -60 Level Boston Center
03:49PM 42.1981 -71.7339 51° Northeast 162 186 3,400 -120 Descending Boston Center
03:51PM 42.2374 -71.6630 53° Northeast  Level FlightAware Approximate
03:58PM 42.3994 -71.4013 56° Northeast  Level FlightAware Approximate
03:59PM 42.4200 -71.3611 51° Northeast  Level FlightAware Approximate
04:00PM 42.4428 -71.3231 51° Northeast  Level FlightAware Approximate
04:01PM 42.4656 -71.2851 51° Northeast  Level FlightAware Approximate
04:02PM 42.4667 -71.2833 51° Northeast  Level FlightAware Approximate
04:03PM 42.4699 -71.2890 51° Northeast  Level Estimated
04:04PM 42.4667 -71.2833 51° Northeast  Level FlightAware Approximate
04:05PM 42.4699 -71.2890 51° Northeast  Level Estimated
04:06PM 42.4667 -71.2833 51° Northeast  Level FlightAware Approximate
04:07PM 42.4699 -71.2890 51° Northeast  Level Estimated
04:08PM 42.4667 -71.2833 51° Northeast  Level FlightAware Approximate
04:09PM 42.4699 -71.2890 51° Northeast  Level Estimated
04:10PM 42.4667 -71.2833 51° Northeast  Level FlightAware Approximate
04:11PM 42.4699 -71.2890 51° Northeast  Level Estimated
04:12PM 42.4667 -71.2833 51° Northeast  Level FlightAware Approximate
04:13PM 42.4699 -71.2890 51° Northeast  Level Estimated
04:14PM 42.4667 -71.2833 51° Northeast  Level FlightAware Approximate
04:15PM 42.4699 -71.2890 51° Northeast  Level Estimated
04:16PM 42.4667 -71.2833 51° Northeast  Level FlightAware Approximate
04:17PM 42.4699 -71.2890 51° Northeast  Level Estimated
04:18PM 42.4667 -71.2833 51° Northeast  Level FlightAware Approximate
04:19PM 42.4699 -71.2890 51° Northeast  Level Estimated
04:20PM 42.4667 -71.2833 51° Northeast  Level FlightAware Approximate
04:21PM 42.4699 -71.2890 51° Northeast  Level Estimated
04:22PM 42.4667 -71.2833 51° Northeast  Level FlightAware Approximate
04:23PM 42.4699 -71.2890 51° Northeast  Level Estimated
04:24PM 42.4667 -71.2833 51° Northeast  Level FlightAware Approximate
04:25PM 42.4699 -71.2890 51° Northeast  Level Estimated
04:26PM 42.4667 -71.2833 51° Northeast  Level FlightAware Approximate
04:27PM 42.4699 -71.2890 51° Northeast  Level Estimated
04:28PM 42.4667 -71.2833 51° Northeast  Level FlightAware Approximate
04:29PM 42.4699 -71.2890 51° Northeast  Level Estimated
04:30PM 42.4667 -71.2833 51° Northeast  Level FlightAware Approximate